sensor_id;sensor_type;location;lat;lon;timestamp;P1;durP1;ratioP1;P2;durP2;ratioP2
76640;SDS011;65538;50.798;6.064;2023-04-25T00:01:45;11.35;;;4.07;;
76640;SDS011;65538;50.798;6.064;2023-04-25T00:04:10;10.43;;;3.50;;
76640;SDS011;65538;50.798;6.064;2023-04-25T00:06:36;12.82;;;4.35;;
76640;SDS011;65538;50.798;6.064;2023-04-25T00:09:05;11.02;;;4.05;;
76640;SDS011;65538;50.798;6.064;2023-04-25T00:11:32;14.85;;;4.05;;
76640;SDS011;65538;50.798;6.064;2023-04-25T00:13:57;11.77;;;4.32;;
76640;SDS011;65538;50.798;6.064;2023-04-25T00:16:24;12.13;;;3.83;;
76640;SDS011;65538;50.798;6.064;2023-04-25T00:18:49;13.77;;;3.53;;
76640;SDS011;65538;50.798;6.064;2023-04-25T00:21:18;17.05;;;4.35;;
76640;SDS011;65538;50.798;6.064;2023-04-25T00:23:44;9.93;;;3.95;;
76640;SDS011;65538;50.798;6.064;2023-04-25T00:26:10;12.10;;;4.55;;
76640;SDS011;65538;50.798;6.064;2023-04-25T00:28:36;12.60;;;4.18;;
76640;SDS011;65538;50.798;6.064;2023-04-25T00:31:02;14.23;;;3.90;;
76640;SDS011;65538;50.798;6.064;2023-04-25T00:33:27;10.82;;;4.43;;
76640;SDS011;65538;50.798;6.064;2023-04-25T00:35:53;9.17;;;3.80;;
76640;SDS011;65538;50.798;6.064;2023-04-25T00:38:18;12.00;;;4.30;;
76640;SDS011;65538;50.798;6.064;2023-04-25T00:40:43;16.30;;;3.67;;
76640;SDS011;65538;50.798;6.064;2023-04-25T00:43:11;11.80;;;4.17;;
76640;SDS011;65538;50.798;6.064;2023-04-25T00:45:38;12.55;;;4.25;;
76640;SDS011;65538;50.798;6.064;2023-04-25T00:48:04;8.80;;;3.85;;
76640;SDS011;65538;50.798;6.064;2023-04-25T00:50:29;12.10;;;4.32;;
76640;SDS011;65538;50.798;6.064;2023-04-25T00:52:55;15.65;;;4.30;;
76640;SDS011;65538;50.798;6.064;2023-04-25T00:55:20;16.13;;;3.83;;
76640;SDS011;65538;50.798;6.064;2023-04-25T00:57:45;14.20;;;4.23;;
76640;SDS011;65538;50.798;6.064;2023-04-25T01:00:11;10.35;;;4.30;;
76640;SDS011;65538;50.798;6.064;2023-04-25T01:02:39;17.30;;;4.18;;
76640;SDS011;65538;50.798;6.064;2023-04-25T01:05:05;14.57;;;4.32;;
76640;SDS011;65538;50.798;6.064;2023-04-25T01:07:30;14.17;;;4.43;;
76640;SDS011;65538;50.798;6.064;2023-04-25T01:09:55;14.20;;;4.70;;
76640;SDS011;65538;50.798;6.064;2023-04-25T01:12:21;12.23;;;4.15;;
76640;SDS011;65538;50.798;6.064;2023-04-25T01:14:46;16.67;;;4.13;;
76640;SDS011;65538;50.798;6.064;2023-04-25T01:17:12;13.32;;;4.97;;
76640;SDS011;65538;50.798;6.064;2023-04-25T01:19:37;10.55;;;3.90;;
76640;SDS011;65538;50.798;6.064;2023-04-25T01:22:03;18.70;;;3.93;;
76640;SDS011;65538;50.798;6.064;2023-04-25T01:24:28;14.13;;;3.88;;
76640;SDS011;65538;50.798;6.064;2023-04-25T01:26:54;16.00;;;3.90;;
76640;SDS011;65538;50.798;6.064;2023-04-25T01:29:21;10.50;;;4.15;;
76640;SDS011;65538;50.798;6.064;2023-04-25T01:31:46;10.85;;;4.20;;
76640;SDS011;65538;50.798;6.064;2023-04-25T01:34:12;13.30;;;4.13;;
76640;SDS011;65538;50.798;6.064;2023-04-25T01:36:37;18.08;;;4.07;;
76640;SDS011;65538;50.798;6.064;2023-04-25T01:39:03;20.77;;;5.05;;
76640;SDS011;65538;50.798;6.064;2023-04-25T01:41:28;15.30;;;4.38;;
76640;SDS011;65538;50.798;6.064;2023-04-25T01:43:54;10.83;;;4.40;;
76640;SDS011;65538;50.798;6.064;2023-04-25T01:46:19;9.63;;;3.83;;
76640;SDS011;65538;50.798;6.064;2023-04-25T01:48:44;13.23;;;5.03;;
76640;SDS011;65538;50.798;6.064;2023-04-25T01:51:10;23.02;;;4.78;;
76640;SDS011;65538;50.798;6.064;2023-04-25T01:53:36;21.95;;;4.68;;
76640;SDS011;65538;50.798;6.064;2023-04-25T01:56:01;15.93;;;4.67;;
76640;SDS011;65538;50.798;6.064;2023-04-25T01:58:27;14.97;;;4.37;;
76640;SDS011;65538;50.798;6.064;2023-04-25T02:00:52;13.73;;;4.00;;
76640;SDS011;65538;50.798;6.064;2023-04-25T02:03:17;17.97;;;4.17;;
76640;SDS011;65538;50.798;6.064;2023-04-25T02:08:13;19.10;;;4.47;;
76640;SDS011;65538;50.798;6.064;2023-04-25T02:10:38;14.65;;;4.45;;
76640;SDS011;65538;50.798;6.064;2023-04-25T02:13:04;12.40;;;4.33;;
76640;SDS011;65538;50.798;6.064;2023-04-25T02:15:30;13.32;;;4.90;;
76640;SDS011;65538;50.798;6.064;2023-04-25T02:17:55;13.67;;;4.33;;
76640;SDS011;65538;50.798;6.064;2023-04-25T02:20:21;18.40;;;4.60;;
76640;SDS011;65538;50.798;6.064;2023-04-25T02:22:46;15.07;;;5.15;;
76640;SDS011;65538;50.798;6.064;2023-04-25T02:25:12;15.35;;;4.72;;
76640;SDS011;65538;50.798;6.064;2023-04-25T02:27:37;15.67;;;4.47;;
76640;SDS011;65538;50.798;6.064;2023-04-25T02:30:02;16.13;;;4.60;;
76640;SDS011;65538;50.798;6.064;2023-04-25T02:32:28;16.00;;;4.65;;
76640;SDS011;65538;50.798;6.064;2023-04-25T02:34:53;12.80;;;4.43;;
76640;SDS011;65538;50.798;6.064;2023-04-25T02:37:18;15.32;;;5.07;;
76640;SDS011;65538;50.798;6.064;2023-04-25T02:39:44;16.30;;;5.10;;
76640;SDS011;65538;50.798;6.064;2023-04-25T02:42:09;14.83;;;4.60;;
76640;SDS011;65538;50.798;6.064;2023-04-25T02:44:34;13.70;;;4.90;;
76640;SDS011;65538;50.798;6.064;2023-04-25T02:46:59;16.23;;;5.00;;
76640;SDS011;65538;50.798;6.064;2023-04-25T02:49:25;13.90;;;4.90;;
76640;SDS011;65538;50.798;6.064;2023-04-25T02:51:50;20.20;;;4.97;;
76640;SDS011;65538;50.798;6.064;2023-04-25T02:54:15;19.60;;;4.57;;
76640;SDS011;65538;50.798;6.064;2023-04-25T02:56:41;12.60;;;4.30;;
76640;SDS011;65538;50.798;6.064;2023-04-25T02:59:06;16.87;;;4.90;;
76640;SDS011;65538;50.798;6.064;2023-04-25T03:01:31;16.77;;;5.03;;
76640;SDS011;65538;50.798;6.064;2023-04-25T03:03:56;13.50;;;4.20;;
76640;SDS011;65538;50.798;6.064;2023-04-25T03:06:21;15.33;;;5.10;;
76640;SDS011;65538;50.798;6.064;2023-04-25T03:08:47;16.13;;;4.03;;
76640;SDS011;65538;50.798;6.064;2023-04-25T03:11:12;13.17;;;4.33;;
76640;SDS011;65538;50.798;6.064;2023-04-25T03:13:37;15.93;;;4.90;;
76640;SDS011;65538;50.798;6.064;2023-04-25T03:16:02;17.47;;;5.10;;
76640;SDS011;65538;50.798;6.064;2023-04-25T03:18:28;15.15;;;4.70;;
76640;SDS011;65538;50.798;6.064;2023-04-25T03:20:53;14.93;;;4.93;;
76640;SDS011;65538;50.798;6.064;2023-04-25T03:23:18;22.80;;;4.73;;
76640;SDS011;65538;50.798;6.064;2023-04-25T03:25:43;16.50;;;4.77;;
76640;SDS011;65538;50.798;6.064;2023-04-25T03:28:08;16.27;;;4.07;;
76640;SDS011;65538;50.798;6.064;2023-04-25T03:30:33;11.77;;;4.50;;
76640;SDS011;65538;50.798;6.064;2023-04-25T03:32:59;14.47;;;4.20;;
76640;SDS011;65538;50.798;6.064;2023-04-25T03:35:24;13.07;;;4.50;;
76640;SDS011;65538;50.798;6.064;2023-04-25T03:37:49;19.42;;;5.40;;
76640;SDS011;65538;50.798;6.064;2023-04-25T03:40:15;12.43;;;4.97;;
76640;SDS011;65538;50.798;6.064;2023-04-25T03:42:40;17.33;;;5.10;;
76640;SDS011;65538;50.798;6.064;2023-04-25T03:45:05;11.57;;;3.70;;
76640;SDS011;65538;50.798;6.064;2023-04-25T03:47:31;20.95;;;4.80;;
76640;SDS011;65538;50.798;6.064;2023-04-25T03:49:56;12.13;;;3.93;;
76640;SDS011;65538;50.798;6.064;2023-04-25T03:52:21;11.00;;;3.70;;
76640;SDS011;65538;50.798;6.064;2023-04-25T03:54:46;21.90;;;4.47;;
76640;SDS011;65538;50.798;6.064;2023-04-25T03:57:11;12.30;;;3.87;;
76640;SDS011;65538;50.798;6.064;2023-04-25T03:59:37;16.73;;;4.47;;
76640;SDS011;65538;50.798;6.064;2023-04-25T04:02:02;20.07;;;4.07;;
76640;SDS011;65538;50.798;6.064;2023-04-25T04:04:27;14.60;;;4.10;;
76640;SDS011;65538;50.798;6.064;2023-04-25T04:06:52;12.77;;;4.27;;
76640;SDS011;65538;50.798;6.064;2023-04-25T04:09:18;12.07;;;3.77;;
76640;SDS011;65538;50.798;6.064;2023-04-25T04:11:44;17.50;;;3.97;;
76640;SDS011;65538;50.798;6.064;2023-04-25T04:14:09;14.88;;;3.92;;
76640;SDS011;65538;50.798;6.064;2023-04-25T04:16:35;20.20;;;4.40;;
76640;SDS011;65538;50.798;6.064;2023-04-25T04:19:00;9.53;;;3.37;;
76640;SDS011;65538;50.798;6.064;2023-04-25T04:21:25;22.20;;;4.03;;
76640;SDS011;65538;50.798;6.064;2023-04-25T04:23:51;15.20;;;3.67;;
76640;SDS011;65538;50.798;6.064;2023-04-25T04:26:17;13.07;;;3.33;;
76640;SDS011;65538;50.798;6.064;2023-04-25T04:28:43;16.45;;;3.92;;
76640;SDS011;65538;50.798;6.064;2023-04-25T04:31:09;13.50;;;4.13;;
76640;SDS011;65538;50.798;6.064;2023-04-25T04:33:34;25.40;;;4.22;;
76640;SDS011;65538;50.798;6.064;2023-04-25T04:36:00;21.80;;;3.80;;
76640;SDS011;65538;50.798;6.064;2023-04-25T04:38:25;13.75;;;3.75;;
76640;SDS011;65538;50.798;6.064;2023-04-25T04:40:51;22.92;;;5.47;;
76640;SDS011;65538;50.798;6.064;2023-04-25T04:43:17;26.42;;;4.78;;
76640;SDS011;65538;50.798;6.064;2023-04-25T04:45:43;13.30;;;4.25;;
76640;SDS011;65538;50.798;6.064;2023-04-25T04:48:09;17.75;;;4.05;;
76640;SDS011;65538;50.798;6.064;2023-04-25T04:50:36;20.65;;;3.83;;
76640;SDS011;65538;50.798;6.064;2023-04-25T04:53:02;13.43;;;3.77;;
76640;SDS011;65538;50.798;6.064;2023-04-25T04:55:27;16.30;;;4.40;;
76640;SDS011;65538;50.798;6.064;2023-04-25T04:57:52;13.63;;;4.93;;
76640;SDS011;65538;50.798;6.064;2023-04-25T05:00:18;27.90;;;6.03;;
76640;SDS011;65538;50.798;6.064;2023-04-25T05:02:43;14.37;;;3.97;;
76640;SDS011;65538;50.798;6.064;2023-04-25T05:05:08;16.63;;;4.90;;
76640;SDS011;65538;50.798;6.064;2023-04-25T05:07:33;16.13;;;4.00;;
76640;SDS011;65538;50.798;6.064;2023-04-25T05:09:59;18.60;;;4.20;;
76640;SDS011;65538;50.798;6.064;2023-04-25T05:12:24;19.10;;;4.60;;
76640;SDS011;65538;50.798;6.064;2023-04-25T05:14:49;14.00;;;3.63;;
76640;SDS011;65538;50.798;6.064;2023-04-25T05:17:14;17.33;;;4.18;;
76640;SDS011;65538;50.798;6.064;2023-04-25T05:19:40;17.13;;;4.63;;
76640;SDS011;65538;50.798;6.064;2023-04-25T05:22:05;15.13;;;4.23;;
76640;SDS011;65538;50.798;6.064;2023-04-25T05:24:30;18.50;;;4.83;;
76640;SDS011;65538;50.798;6.064;2023-04-25T05:26:56;12.90;;;4.10;;
76640;SDS011;65538;50.798;6.064;2023-04-25T05:29:21;19.53;;;5.40;;
76640;SDS011;65538;50.798;6.064;2023-04-25T05:31:46;15.37;;;4.47;;
76640;SDS011;65538;50.798;6.064;2023-04-25T05:34:12;21.45;;;4.22;;
76640;SDS011;65538;50.798;6.064;2023-04-25T05:36:38;20.90;;;4.57;;
76640;SDS011;65538;50.798;6.064;2023-04-25T05:39:03;15.90;;;4.10;;
76640;SDS011;65538;50.798;6.064;2023-04-25T05:41:29;14.25;;;4.28;;
76640;SDS011;65538;50.798;6.064;2023-04-25T05:43:54;22.77;;;4.83;;
76640;SDS011;65538;50.798;6.064;2023-04-25T05:46:19;16.77;;;4.33;;
76640;SDS011;65538;50.798;6.064;2023-04-25T05:48:45;11.23;;;3.53;;
76640;SDS011;65538;50.798;6.064;2023-04-25T05:51:10;27.30;;;4.77;;
76640;SDS011;65538;50.798;6.064;2023-04-25T05:53:35;15.27;;;4.17;;
76640;SDS011;65538;50.798;6.064;2023-04-25T05:56:00;16.07;;;5.20;;
76640;SDS011;65538;50.798;6.064;2023-04-25T05:58:26;14.57;;;4.35;;
76640;SDS011;65538;50.798;6.064;2023-04-25T06:00:51;22.33;;;5.07;;
76640;SDS011;65538;50.798;6.064;2023-04-25T06:03:16;17.40;;;5.10;;
76640;SDS011;65538;50.798;6.064;2023-04-25T06:05:42;17.90;;;4.53;;
76640;SDS011;65538;50.798;6.064;2023-04-25T06:08:07;13.63;;;4.05;;
76640;SDS011;65538;50.798;6.064;2023-04-25T06:10:33;12.97;;;4.27;;
76640;SDS011;65538;50.798;6.064;2023-04-25T06:12:58;21.83;;;4.97;;
76640;SDS011;65538;50.798;6.064;2023-04-25T06:15:23;13.90;;;4.50;;
76640;SDS011;65538;50.798;6.064;2023-04-25T06:17:48;17.30;;;4.60;;
76640;SDS011;65538;50.798;6.064;2023-04-25T06:20:14;14.38;;;4.43;;
76640;SDS011;65538;50.798;6.064;2023-04-25T06:22:39;13.83;;;4.33;;
76640;SDS011;65538;50.798;6.064;2023-04-25T06:25:04;14.17;;;3.87;;
76640;SDS011;65538;50.798;6.064;2023-04-25T06:27:30;14.40;;;4.63;;
76640;SDS011;65538;50.798;6.064;2023-04-25T06:29:55;13.97;;;3.23;;
76640;SDS011;65538;50.798;6.064;2023-04-25T06:32:20;13.37;;;3.20;;
76640;SDS011;65538;50.798;6.064;2023-04-25T06:34:45;12.53;;;2.97;;
76640;SDS011;65538;50.798;6.064;2023-04-25T06:37:11;15.57;;;3.30;;
76640;SDS011;65538;50.798;6.064;2023-04-25T06:39:36;15.38;;;3.42;;
76640;SDS011;65538;50.798;6.064;2023-04-25T06:42:01;13.97;;;2.90;;
76640;SDS011;65538;50.798;6.064;2023-04-25T06:44:27;10.13;;;3.50;;
76640;SDS011;65538;50.798;6.064;2023-04-25T06:46:54;10.25;;;2.88;;
76640;SDS011;65538;50.798;6.064;2023-04-25T06:49:19;12.17;;;2.53;;
76640;SDS011;65538;50.798;6.064;2023-04-25T06:51:44;15.80;;;3.70;;
76640;SDS011;65538;50.798;6.064;2023-04-25T06:54:10;10.48;;;2.97;;
76640;SDS011;65538;50.798;6.064;2023-04-25T06:56:35;11.40;;;2.97;;
76640;SDS011;65538;50.798;6.064;2023-04-25T06:59:00;10.13;;;2.77;;
76640;SDS011;65538;50.798;6.064;2023-04-25T07:01:25;15.30;;;3.30;;
76640;SDS011;65538;50.798;6.064;2023-04-25T07:03:51;13.27;;;3.00;;
76640;SDS011;65538;50.798;6.064;2023-04-25T07:06:16;11.47;;;2.87;;
76640;SDS011;65538;50.798;6.064;2023-04-25T07:08:41;12.83;;;2.70;;
76640;SDS011;65538;50.798;6.064;2023-04-25T07:11:06;10.60;;;3.33;;
76640;SDS011;65538;50.798;6.064;2023-04-25T07:13:31;11.07;;;2.80;;
76640;SDS011;65538;50.798;6.064;2023-04-25T07:15:57;14.30;;;2.87;;
76640;SDS011;65538;50.798;6.064;2023-04-25T07:18:22;12.87;;;3.73;;
76640;SDS011;65538;50.798;6.064;2023-04-25T07:20:47;16.47;;;4.10;;
76640;SDS011;65538;50.798;6.064;2023-04-25T07:23:12;9.80;;;2.80;;
76640;SDS011;65538;50.798;6.064;2023-04-25T07:25:38;15.98;;;3.90;;
76640;SDS011;65538;50.798;6.064;2023-04-25T07:28:03;15.67;;;4.20;;
76640;SDS011;65538;50.798;6.064;2023-04-25T07:30:29;12.68;;;3.30;;
76640;SDS011;65538;50.798;6.064;2023-04-25T07:32:54;18.70;;;3.95;;
76640;SDS011;65538;50.798;6.064;2023-04-25T07:35:20;16.58;;;3.60;;
76640;SDS011;65538;50.798;6.064;2023-04-25T07:37:45;13.03;;;3.63;;
76640;SDS011;65538;50.798;6.064;2023-04-25T07:40:10;16.60;;;4.27;;
76640;SDS011;65538;50.798;6.064;2023-04-25T07:42:36;13.32;;;3.65;;
76640;SDS011;65538;50.798;6.064;2023-04-25T07:45:01;18.70;;;3.17;;
76640;SDS011;65538;50.798;6.064;2023-04-25T07:47:27;11.93;;;2.80;;
76640;SDS011;65538;50.798;6.064;2023-04-25T07:49:52;8.10;;;2.70;;
76640;SDS011;65538;50.798;6.064;2023-04-25T07:52:18;19.03;;;3.43;;
76640;SDS011;65538;50.798;6.064;2023-04-25T07:54:43;15.67;;;3.90;;
76640;SDS011;65538;50.798;6.064;2023-04-25T07:57:08;14.30;;;3.17;;
76640;SDS011;65538;50.798;6.064;2023-04-25T07:59:33;12.77;;;2.63;;
76640;SDS011;65538;50.798;6.064;2023-04-25T08:01:59;8.20;;;2.88;;
76640;SDS011;65538;50.798;6.064;2023-04-25T08:04:25;13.95;;;2.90;;
76640;SDS011;65538;50.798;6.064;2023-04-25T08:06:50;5.68;;;2.17;;
76640;SDS011;65538;50.798;6.064;2023-04-25T08:09:16;10.45;;;2.92;;
76640;SDS011;65538;50.798;6.064;2023-04-25T08:11:41;12.77;;;3.25;;
76640;SDS011;65538;50.798;6.064;2023-04-25T08:14:07;16.00;;;3.60;;
76640;SDS011;65538;50.798;6.064;2023-04-25T08:16:32;14.07;;;3.03;;
76640;SDS011;65538;50.798;6.064;2023-04-25T08:18:58;7.30;;;2.17;;
76640;SDS011;65538;50.798;6.064;2023-04-25T08:21:23;6.60;;;2.03;;
76640;SDS011;65538;50.798;6.064;2023-04-25T08:23:49;10.93;;;2.37;;
76640;SDS011;65538;50.798;6.064;2023-04-25T08:26:14;12.63;;;2.50;;
76640;SDS011;65538;50.798;6.064;2023-04-25T08:28:39;14.60;;;2.60;;
76640;SDS011;65538;50.798;6.064;2023-04-25T08:31:05;8.57;;;2.43;;
76640;SDS011;65538;50.798;6.064;2023-04-25T08:33:30;11.98;;;2.38;;
76640;SDS011;65538;50.798;6.064;2023-04-25T08:35:56;7.65;;;2.53;;
76640;SDS011;65538;50.798;6.064;2023-04-25T08:38:21;9.97;;;2.77;;
76640;SDS011;65538;50.798;6.064;2023-04-25T08:40:48;6.90;;;1.83;;
76640;SDS011;65538;50.798;6.064;2023-04-25T08:43:14;8.27;;;2.13;;
76640;SDS011;65538;50.798;6.064;2023-04-25T08:45:40;17.80;;;3.33;;
76640;SDS011;65538;50.798;6.064;2023-04-25T08:48:07;8.07;;;2.65;;
76640;SDS011;65538;50.798;6.064;2023-04-25T08:50:35;8.07;;;2.88;;
76640;SDS011;65538;50.798;6.064;2023-04-25T08:53:00;10.75;;;2.90;;
76640;SDS011;65538;50.798;6.064;2023-04-25T08:55:28;8.52;;;2.45;;
76640;SDS011;65538;50.798;6.064;2023-04-25T08:57:55;11.02;;;2.58;;
76640;SDS011;65538;50.798;6.064;2023-04-25T09:00:21;10.90;;;2.28;;
76640;SDS011;65538;50.798;6.064;2023-04-25T09:02:47;11.70;;;2.58;;
76640;SDS011;65538;50.798;6.064;2023-04-25T09:05:12;11.43;;;2.13;;
76640;SDS011;65538;50.798;6.064;2023-04-25T09:07:38;7.60;;;2.08;;
76640;SDS011;65538;50.798;6.064;2023-04-25T09:10:03;9.97;;;2.90;;
76640;SDS011;65538;50.798;6.064;2023-04-25T09:12:29;8.68;;;2.10;;
76640;SDS011;65538;50.798;6.064;2023-04-25T09:15:05;8.33;;;1.90;;
76640;SDS011;65538;50.798;6.064;2023-04-25T09:17:30;12.95;;;2.25;;
76640;SDS011;65538;50.798;6.064;2023-04-25T09:20:02;10.68;;;1.75;;
76640;SDS011;65538;50.798;6.064;2023-04-25T09:22:30;7.03;;;1.85;;
76640;SDS011;65538;50.798;6.064;2023-04-25T09:24:55;11.03;;;2.20;;
76640;SDS011;65538;50.798;6.064;2023-04-25T09:27:20;5.70;;;1.90;;
76640;SDS011;65538;50.798;6.064;2023-04-25T09:29:50;8.57;;;2.10;;
76640;SDS011;65538;50.798;6.064;2023-04-25T09:32:22;8.25;;;2.30;;
76640;SDS011;65538;50.798;6.064;2023-04-25T09:34:51;11.70;;;2.05;;
76640;SDS011;65538;50.798;6.064;2023-04-25T09:39:42;11.32;;;2.17;;
76640;SDS011;65538;50.798;6.064;2023-04-25T09:42:09;10.43;;;2.90;;
76640;SDS011;65538;50.798;6.064;2023-04-25T09:44:35;11.33;;;2.47;;
76640;SDS011;65538;50.798;6.064;2023-04-25T09:47:00;8.50;;;1.85;;
76640;SDS011;65538;50.798;6.064;2023-04-25T09:49:27;6.80;;;2.13;;
76640;SDS011;65538;50.798;6.064;2023-04-25T09:51:56;9.77;;;2.33;;
76640;SDS011;65538;50.798;6.064;2023-04-25T09:54:23;7.43;;;2.30;;
76640;SDS011;65538;50.798;6.064;2023-04-25T09:56:48;13.93;;;2.42;;
76640;SDS011;65538;50.798;6.064;2023-04-25T09:59:16;11.93;;;2.42;;
76640;SDS011;65538;50.798;6.064;2023-04-25T10:01:41;10.52;;;2.88;;
76640;SDS011;65538;50.798;6.064;2023-04-25T10:04:09;10.05;;;2.40;;
76640;SDS011;65538;50.798;6.064;2023-04-25T10:06:35;9.43;;;2.33;;
76640;SDS011;65538;50.798;6.064;2023-04-25T10:09:01;8.40;;;2.78;;
76640;SDS011;65538;50.798;6.064;2023-04-25T10:11:28;8.70;;;2.50;;
76640;SDS011;65538;50.798;6.064;2023-04-25T10:13:54;10.73;;;2.60;;
76640;SDS011;65538;50.798;6.064;2023-04-25T10:16:20;8.18;;;2.20;;
76640;SDS011;65538;50.798;6.064;2023-04-25T10:18:45;8.48;;;2.63;;
76640;SDS011;65538;50.798;6.064;2023-04-25T10:21:11;10.73;;;2.63;;
76640;SDS011;65538;50.798;6.064;2023-04-25T10:23:37;7.82;;;2.45;;
76640;SDS011;65538;50.798;6.064;2023-04-25T10:26:02;18.45;;;5.05;;
76640;SDS011;65538;50.798;6.064;2023-04-25T10:28:28;9.60;;;2.60;;
76640;SDS011;65538;50.798;6.064;2023-04-25T10:31:00;15.25;;;3.25;;
76640;SDS011;65538;50.798;6.064;2023-04-25T10:33:32;10.48;;;2.67;;
76640;SDS011;65538;50.798;6.064;2023-04-25T10:35:58;10.75;;;2.90;;
76640;SDS011;65538;50.798;6.064;2023-04-25T10:38:24;8.47;;;2.83;;
76640;SDS011;65538;50.798;6.064;2023-04-25T10:41:24;5.60;;;1.60;;
76640;SDS011;65538;50.798;6.064;2023-04-25T10:43:43;8.70;;;2.88;;
76640;SDS011;65538;50.798;6.064;2023-04-25T10:46:13;12.10;;;3.10;;
76640;SDS011;65538;50.798;6.064;2023-04-25T10:48:56;7.65;;;2.90;;
76640;SDS011;65538;50.798;6.064;2023-04-25T10:51:23;8.27;;;2.80;;
76640;SDS011;65538;50.798;6.064;2023-04-25T10:56:30;8.82;;;2.38;;
76640;SDS011;65538;50.798;6.064;2023-04-25T10:59:15;10.13;;;2.75;;
76640;SDS011;65538;50.798;6.064;2023-04-25T11:01:41;10.45;;;3.10;;
76640;SDS011;65538;50.798;6.064;2023-04-25T11:04:23;7.38;;;2.72;;
76640;SDS011;65538;50.798;6.064;2023-04-25T11:09:20;9.15;;;2.65;;
76640;SDS011;65538;50.798;6.064;2023-04-25T11:12:06;12.52;;;3.20;;
76640;SDS011;65538;50.798;6.064;2023-04-25T11:14:32;9.75;;;2.53;;
76640;SDS011;65538;50.798;6.064;2023-04-25T11:16:57;12.97;;;3.20;;
76640;SDS011;65538;50.798;6.064;2023-04-25T11:19:23;5.47;;;2.35;;
76640;SDS011;65538;50.798;6.064;2023-04-25T11:21:49;12.70;;;2.92;;
76640;SDS011;65538;50.798;6.064;2023-04-25T11:24:15;8.32;;;3.00;;
76640;SDS011;65538;50.798;6.064;2023-04-25T11:26:41;11.40;;;3.33;;
76640;SDS011;65538;50.798;6.064;2023-04-25T11:29:06;10.10;;;3.00;;
76640;SDS011;65538;50.798;6.064;2023-04-25T11:31:32;9.07;;;2.60;;
76640;SDS011;65538;50.798;6.064;2023-04-25T11:33:57;10.30;;;2.57;;
76640;SDS011;65538;50.798;6.064;2023-04-25T11:36:26;10.05;;;2.90;;
76640;SDS011;65538;50.798;6.064;2023-04-25T11:38:52;7.45;;;2.42;;
76640;SDS011;65538;50.798;6.064;2023-04-25T11:41:17;12.95;;;2.22;;
76640;SDS011;65538;50.798;6.064;2023-04-25T11:43:43;9.68;;;2.70;;
76640;SDS011;65538;50.798;6.064;2023-04-25T11:46:08;7.82;;;2.20;;
76640;SDS011;65538;50.798;6.064;2023-04-25T11:48:42;6.00;;;1.93;;
76640;SDS011;65538;50.798;6.064;2023-04-25T11:51:08;10.43;;;2.33;;
76640;SDS011;65538;50.798;6.064;2023-04-25T11:53:33;5.97;;;1.90;;
76640;SDS011;65538;50.798;6.064;2023-04-25T11:55:59;6.18;;;1.80;;
76640;SDS011;65538;50.798;6.064;2023-04-25T11:58:25;11.00;;;2.35;;
76640;SDS011;65538;50.798;6.064;2023-04-25T12:00:50;7.28;;;1.85;;
76640;SDS011;65538;50.798;6.064;2023-04-25T12:03:17;9.47;;;2.20;;
76640;SDS011;65538;50.798;6.064;2023-04-25T12:05:42;8.35;;;2.05;;
76640;SDS011;65538;50.798;6.064;2023-04-25T12:08:11;6.37;;;2.10;;
76640;SDS011;65538;50.798;6.064;2023-04-25T12:13:17;6.15;;;1.50;;
76640;SDS011;65538;50.798;6.064;2023-04-25T12:15:42;5.35;;;1.40;;
76640;SDS011;65538;50.798;6.064;2023-04-25T12:18:07;10.50;;;1.70;;
76640;SDS011;65538;50.798;6.064;2023-04-25T12:20:33;6.43;;;1.73;;
76640;SDS011;65538;50.798;6.064;2023-04-25T12:22:58;7.38;;;1.80;;
76640;SDS011;65538;50.798;6.064;2023-04-25T12:28:14;5.13;;;1.83;;
76640;SDS011;65538;50.798;6.064;2023-04-25T12:33:17;6.72;;;2.25;;
76640;SDS011;65538;50.798;6.064;2023-04-25T12:35:42;7.80;;;2.00;;
76640;SDS011;65538;50.798;6.064;2023-04-25T12:38:08;8.03;;;1.93;;
76640;SDS011;65538;50.798;6.064;2023-04-25T12:40:33;4.78;;;1.52;;
76640;SDS011;65538;50.798;6.064;2023-04-25T12:42:58;9.07;;;2.10;;
76640;SDS011;65538;50.798;6.064;2023-04-25T12:45:24;7.80;;;1.90;;
76640;SDS011;65538;50.798;6.064;2023-04-25T12:47:49;12.37;;;2.10;;
76640;SDS011;65538;50.798;6.064;2023-04-25T12:50:14;7.78;;;1.95;;
76640;SDS011;65538;50.798;6.064;2023-04-25T12:52:39;6.40;;;2.63;;
76640;SDS011;65538;50.798;6.064;2023-04-25T12:55:05;8.93;;;2.77;;
76640;SDS011;65538;50.798;6.064;2023-04-25T12:57:30;7.68;;;2.15;;
76640;SDS011;65538;50.798;6.064;2023-04-25T12:59:55;8.53;;;2.10;;
76640;SDS011;65538;50.798;6.064;2023-04-25T13:02:21;6.97;;;1.80;;
76640;SDS011;65538;50.798;6.064;2023-04-25T13:04:46;5.53;;;1.95;;
76640;SDS011;65538;50.798;6.064;2023-04-25T13:07:11;8.07;;;2.47;;
76640;SDS011;65538;50.798;6.064;2023-04-25T13:09:37;9.43;;;1.90;;
76640;SDS011;65538;50.798;6.064;2023-04-25T13:12:02;7.03;;;1.60;;
76640;SDS011;65538;50.798;6.064;2023-04-25T13:14:27;10.57;;;2.10;;
76640;SDS011;65538;50.798;6.064;2023-04-25T13:16:52;9.53;;;2.00;;
76640;SDS011;65538;50.798;6.064;2023-04-25T13:19:19;6.65;;;1.75;;
76640;SDS011;65538;50.798;6.064;2023-04-25T13:21:44;8.65;;;1.90;;
76640;SDS011;65538;50.798;6.064;2023-04-25T13:24:09;8.13;;;1.80;;
76640;SDS011;65538;50.798;6.064;2023-04-25T13:26:35;7.93;;;1.73;;
76640;SDS011;65538;50.798;6.064;2023-04-25T13:29:00;4.65;;;1.70;;
76640;SDS011;65538;50.798;6.064;2023-04-25T13:31:28;7.13;;;2.22;;
76640;SDS011;65538;50.798;6.064;2023-04-25T13:33:53;6.07;;;1.37;;
76640;SDS011;65538;50.798;6.064;2023-04-25T13:36:18;7.57;;;2.40;;
76640;SDS011;65538;50.798;6.064;2023-04-25T13:38:44;6.43;;;1.73;;
76640;SDS011;65538;50.798;6.064;2023-04-25T13:41:12;10.30;;;2.45;;
76640;SDS011;65538;50.798;6.064;2023-04-25T13:43:42;7.43;;;1.92;;
76640;SDS011;65538;50.798;6.064;2023-04-25T13:46:07;7.43;;;1.70;;
76640;SDS011;65538;50.798;6.064;2023-04-25T13:48:32;4.80;;;2.00;;
76640;SDS011;65538;50.798;6.064;2023-04-25T13:50:58;5.87;;;1.50;;
76640;SDS011;65538;50.798;6.064;2023-04-25T13:53:23;5.27;;;1.67;;
76640;SDS011;65538;50.798;6.064;2023-04-25T13:55:48;5.90;;;1.83;;
76640;SDS011;65538;50.798;6.064;2023-04-25T13:58:13;8.43;;;1.70;;
76640;SDS011;65538;50.798;6.064;2023-04-25T14:00:39;10.07;;;3.30;;
76640;SDS011;65538;50.798;6.064;2023-04-25T14:03:05;10.40;;;2.03;;
76640;SDS011;65538;50.798;6.064;2023-04-25T14:05:32;5.53;;;2.05;;
76640;SDS011;65538;50.798;6.064;2023-04-25T14:07:57;8.43;;;2.20;;
76640;SDS011;65538;50.798;6.064;2023-04-25T14:10:23;5.88;;;2.47;;
76640;SDS011;65538;50.798;6.064;2023-04-25T14:12:48;5.10;;;2.40;;
76640;SDS011;65538;50.798;6.064;2023-04-25T14:15:13;9.50;;;2.07;;
76640;SDS011;65538;50.798;6.064;2023-04-25T14:17:39;5.05;;;1.90;;
76640;SDS011;65538;50.798;6.064;2023-04-25T14:20:05;4.53;;;1.90;;
76640;SDS011;65538;50.798;6.064;2023-04-25T14:22:30;4.57;;;1.73;;
76640;SDS011;65538;50.798;6.064;2023-04-25T14:24:56;7.57;;;2.00;;
76640;SDS011;65538;50.798;6.064;2023-04-25T14:27:21;7.80;;;2.93;;
76640;SDS011;65538;50.798;6.064;2023-04-25T14:29:46;9.63;;;2.30;;
76640;SDS011;65538;50.798;6.064;2023-04-25T14:32:12;7.07;;;2.35;;
76640;SDS011;65538;50.798;6.064;2023-04-25T14:34:37;5.43;;;2.00;;
76640;SDS011;65538;50.798;6.064;2023-04-25T14:37:02;6.47;;;1.80;;
76640;SDS011;65538;50.798;6.064;2023-04-25T14:39:28;6.40;;;2.77;;
76640;SDS011;65538;50.798;6.064;2023-04-25T14:41:53;6.87;;;2.10;;
76640;SDS011;65538;50.798;6.064;2023-04-25T14:44:18;7.97;;;2.13;;
76640;SDS011;65538;50.798;6.064;2023-04-25T14:46:43;5.43;;;1.80;;
76640;SDS011;65538;50.798;6.064;2023-04-25T14:49:08;6.07;;;2.43;;